createdAt,value
2023-02-01T00:01:30.276Z,97553.31
2023-02-01T00:03:56.923Z,97532.84
2023-02-01T00:06:23.658Z,97544.47
2023-02-01T00:08:50.319Z,97543.09
2023-02-01T00:11:16.991Z,97537.50
2023-02-01T00:13:43.657Z,97546.00
2023-02-01T00:16:10.308Z,97545.34
2023-02-01T00:18:36.939Z,97563.44
2023-02-01T00:21:03.611Z,97555.88
2023-02-01T00:23:30.245Z,97566.69
2023-02-01T00:25:56.867Z,97546.81
2023-02-01T00:28:23.559Z,97548.63
2023-02-01T00:30:50.211Z,97538.97
2023-02-01T00:33:16.820Z,97533.03
2023-02-01T00:35:43.481Z,97544.66
2023-02-01T00:38:10.080Z,97541.41
2023-02-01T00:40:36.720Z,97538.34
2023-02-01T00:43:03.385Z,97542.88
2023-02-01T00:45:30.073Z,97534.88
2023-02-01T00:47:56.765Z,97543.88
2023-02-01T00:50:23.613Z,97537.19
2023-02-01T00:52:50.444Z,97547.19
2023-02-01T00:55:17.122Z,97532.09
2023-02-01T00:57:43.755Z,97545.47
2023-02-01T01:00:10.454Z,97539.72
2023-02-01T01:02:37.081Z,97532.97
2023-02-01T01:05:03.731Z,97530.50
2023-02-01T01:07:30.358Z,97531.91
2023-02-01T01:09:57.005Z,97532.75
2023-02-01T01:12:23.635Z,97521.59
2023-02-01T01:14:50.292Z,97510.88
2023-02-01T01:17:16.920Z,97499.34
2023-02-01T01:19:43.556Z,97484.91
2023-02-01T01:22:10.240Z,97482.53
2023-02-01T01:24:36.923Z,97489.69
2023-02-01T01:27:03.593Z,97483.44
2023-02-01T01:29:30.216Z,97483.38
2023-02-01T01:31:56.921Z,97486.00
2023-02-01T01:34:23.568Z,97497.13
2023-02-01T01:36:50.251Z,97502.16
2023-02-01T01:39:16.925Z,97493.16
2023-02-01T01:41:43.583Z,97506.88
2023-02-01T01:44:10.268Z,97488.75
2023-02-01T01:46:36.976Z,97488.59
2023-02-01T01:49:03.651Z,97476.94
2023-02-01T01:51:30.278Z,97473.06
2023-02-01T01:53:56.970Z,97489.31
2023-02-01T01:56:23.646Z,97490.63
2023-02-01T01:58:50.285Z,97472.31
2023-02-01T02:01:16.942Z,97493.09
2023-02-01T02:03:43.625Z,97484.31
2023-02-01T02:06:10.309Z,97485.44
2023-02-01T02:08:36.936Z,97467.09
2023-02-01T02:11:03.575Z,97487.47
2023-02-01T02:13:30.257Z,97491.53
2023-02-01T02:15:56.978Z,97497.72
2023-02-01T02:18:25.567Z,97490.56
2023-02-01T02:20:52.217Z,97488.03
2023-02-01T02:23:18.888Z,97487.59
2023-02-01T02:25:45.496Z,97481.13
2023-02-01T02:28:12.123Z,97485.03
2023-02-01T02:30:38.819Z,97478.34
2023-02-01T02:33:05.503Z,97488.91
2023-02-01T02:35:32.157Z,97480.97
2023-02-01T02:37:58.784Z,97474.59
2023-02-01T02:40:25.441Z,97463.28
2023-02-01T02:42:52.108Z,97456.88
2023-02-01T02:45:18.725Z,97469.06
2023-02-01T02:47:45.396Z,97468.72
2023-02-01T02:50:12.034Z,97476.97
2023-02-01T02:52:38.622Z,97479.19
2023-02-01T02:55:05.298Z,97482.38
2023-02-01T02:57:31.944Z,97474.94
2023-02-01T02:59:58.634Z,97454.63
2023-02-01T03:02:25.340Z,97448.00
2023-02-01T03:04:51.997Z,97451.28
2023-02-01T03:07:18.662Z,97447.47
2023-02-01T03:09:45.310Z,97467.38
2023-02-01T03:12:11.998Z,97475.03
2023-02-01T03:14:38.699Z,97450.28
2023-02-01T03:17:05.388Z,97449.22
2023-02-01T03:19:31.984Z,97445.03
2023-02-01T03:24:25.079Z,97458.63
2023-02-01T03:26:52.193Z,97440.56
2023-02-01T03:29:18.859Z,97447.72
2023-02-01T03:31:45.549Z,97445.72
2023-02-01T03:34:12.177Z,97444.63
2023-02-01T03:36:38.793Z,97439.19
2023-02-01T03:39:05.403Z,97461.19
2023-02-01T03:41:32.025Z,97451.09
2023-02-01T03:43:58.686Z,97447.63
2023-02-01T03:46:25.375Z,97457.16
2023-02-01T03:48:52.015Z,97471.69
2023-02-01T03:51:18.608Z,97472.84
2023-02-01T03:53:45.215Z,97467.09
2023-02-01T03:56:11.864Z,97476.00
2023-02-01T03:58:38.560Z,97472.59
2023-02-01T04:01:05.262Z,97474.22
2023-02-01T04:03:31.946Z,97492.16
2023-02-01T04:05:58.571Z,97490.28
2023-02-01T04:08:25.226Z,97485.63
2023-02-01T04:10:51.889Z,97490.19
2023-02-01T04:13:18.552Z,97483.13
2023-02-01T04:15:45.191Z,97481.84
2023-02-01T04:18:11.829Z,97487.78
2023-02-01T04:20:38.495Z,97495.84
2023-02-01T04:23:05.186Z,97488.94
2023-02-01T04:25:31.827Z,97493.00
2023-02-01T04:27:58.497Z,97481.31
2023-02-01T04:30:25.556Z,97483.88
2023-02-01T04:32:52.342Z,97485.25
2023-02-01T04:35:19.046Z,97472.88
2023-02-01T04:37:45.693Z,97475.69
2023-02-01T04:40:12.356Z,97484.47
2023-02-01T04:42:39.045Z,97497.00
2023-02-01T04:45:05.647Z,97478.44
2023-02-01T04:47:32.281Z,97496.59
2023-02-01T04:49:58.907Z,97497.19
2023-02-01T04:52:25.504Z,97498.22
2023-02-01T04:54:52.148Z,97491.59
2023-02-01T04:57:18.784Z,97476.72
2023-02-01T04:59:45.452Z,97489.31
2023-02-01T05:02:12.109Z,97488.06
2023-02-01T05:04:38.787Z,97481.84
2023-02-01T05:07:05.433Z,97489.91
2023-02-01T05:09:32.089Z,97475.41
2023-02-01T05:11:58.822Z,97478.78
2023-02-01T05:14:25.483Z,97473.72
2023-02-01T05:16:52.143Z,97476.50
2023-02-01T05:19:18.770Z,97476.94
2023-02-01T05:21:45.421Z,97482.53
2023-02-01T05:24:12.070Z,97487.28
2023-02-01T05:26:38.833Z,97490.72
2023-02-01T05:29:05.643Z,97498.06
2023-02-01T05:31:32.439Z,97504.25
2023-02-01T05:33:59.073Z,97502.56
2023-02-01T05:36:25.669Z,97486.28
2023-02-01T05:38:52.335Z,97510.22
2023-02-01T05:41:18.977Z,97503.66
2023-02-01T05:43:45.613Z,97508.00
2023-02-01T05:46:12.278Z,97493.50
2023-02-01T05:48:38.997Z,97494.69
2023-02-01T05:51:05.592Z,97500.91
2023-02-01T05:53:32.253Z,97500.38
2023-02-01T05:55:58.846Z,97499.50
2023-02-01T05:58:25.471Z,97501.09
2023-02-01T06:00:52.130Z,97494.03
2023-02-01T06:03:18.778Z,97501.84
2023-02-01T06:05:45.420Z,97514.25
2023-02-01T06:08:12.023Z,97505.16
2023-02-01T06:10:38.656Z,97501.31
2023-02-01T06:13:05.319Z,97503.84
2023-02-01T06:15:31.958Z,97487.91
2023-02-01T06:17:58.564Z,97502.63
2023-02-01T06:20:25.444Z,97494.25
2023-02-01T06:22:52.112Z,97506.34
2023-02-01T06:25:18.786Z,97499.50
2023-02-01T06:27:45.418Z,97513.69
2023-02-01T06:30:12.059Z,97515.00
2023-02-01T06:32:38.672Z,97512.94
2023-02-01T06:35:05.319Z,97511.88
2023-02-01T06:37:31.945Z,97524.31
2023-02-01T06:39:58.669Z,97516.88
2023-02-01T06:42:25.348Z,97516.28
2023-02-01T06:44:51.987Z,97526.00
2023-02-01T06:47:18.555Z,97515.53
2023-02-01T06:49:45.190Z,97525.81
2023-02-01T06:52:11.856Z,97537.06
2023-02-01T06:54:38.579Z,97539.28
2023-02-01T06:57:05.207Z,97519.72
2023-02-01T06:59:31.908Z,97534.06
2023-02-01T07:01:58.595Z,97535.38
2023-02-01T07:04:25.271Z,97537.28
2023-02-01T07:06:51.930Z,97534.44
2023-02-01T07:09:18.605Z,97531.97
2023-02-01T07:11:45.267Z,97553.00
2023-02-01T07:14:11.930Z,97530.50
2023-02-01T07:16:38.633Z,97538.28
2023-02-01T07:19:05.240Z,97531.91
2023-02-01T07:21:32.065Z,97515.53
2023-02-01T07:23:58.805Z,97531.63
2023-02-01T07:26:25.455Z,97520.91
2023-02-01T07:28:52.141Z,97533.66
2023-02-01T07:31:18.839Z,97523.28
2023-02-01T07:33:45.475Z,97526.13
2023-02-01T07:36:12.142Z,97531.97
2023-02-01T07:38:38.793Z,97532.59
2023-02-01T07:41:05.428Z,97543.06
2023-02-01T07:43:32.030Z,97542.03
2023-02-01T07:45:58.734Z,97537.97
2023-02-01T07:48:25.412Z,97534.25
2023-02-01T07:50:52.089Z,97541.66
2023-02-01T07:53:18.789Z,97526.66
2023-02-01T07:55:45.495Z,97531.16
2023-02-01T07:58:12.137Z,97549.88
2023-02-01T08:00:38.822Z,97532.94
2023-02-01T08:03:05.526Z,97551.81
2023-02-01T08:05:32.111Z,97543.06
2023-02-01T08:07:58.777Z,97542.91
2023-02-01T08:10:25.775Z,97535.66
2023-02-01T08:12:52.557Z,97545.13
2023-02-01T08:15:19.201Z,97548.91
2023-02-01T08:17:47.817Z,97549.63
2023-02-01T08:20:14.534Z,97540.75
2023-02-01T08:22:41.121Z,97542.66
2023-02-01T08:25:07.856Z,97547.44
2023-02-01T08:27:34.497Z,97554.25
2023-02-01T08:30:01.144Z,97545.50
2023-02-01T08:32:27.739Z,97534.31
2023-02-01T08:34:54.419Z,97542.50
2023-02-01T08:37:21.109Z,97539.34
2023-02-01T08:39:47.881Z,97541.28
2023-02-01T08:42:14.483Z,97535.56
2023-02-01T08:44:41.089Z,97541.16
2023-02-01T08:47:07.705Z,97534.84
2023-02-01T08:49:34.345Z,97532.22
2023-02-01T08:52:06.994Z,97532.50
2023-02-01T08:54:34.053Z,97527.72
2023-02-01T08:57:00.768Z,97533.19
2023-02-01T08:59:28.655Z,97529.34
2023-02-01T09:01:56.888Z,97525.41
2023-02-01T09:04:23.687Z,97514.00
2023-02-01T09:06:50.334Z,97523.19
2023-02-01T09:09:16.954Z,97520.16
2023-02-01T09:11:43.559Z,97501.25
2023-02-01T09:14:10.270Z,97500.19
2023-02-01T09:16:36.899Z,97508.69
2023-02-01T09:19:24.509Z,97501.06
2023-02-01T09:21:50.097Z,97501.97
2023-02-01T09:24:16.737Z,97517.41
2023-02-01T09:26:43.398Z,97506.94
2023-02-01T09:29:10.062Z,97508.16
2023-02-01T09:31:37.556Z,97504.09
2023-02-01T09:34:04.232Z,97503.53
2023-02-01T09:36:31.325Z,97490.66
2023-02-01T09:38:58.031Z,97486.66
2023-02-01T09:41:24.671Z,97478.38
2023-02-01T09:43:51.267Z,97480.53
2023-02-01T09:46:18.073Z,97470.53
2023-02-01T09:48:44.709Z,97464.81
2023-02-01T09:51:11.527Z,97473.84
2023-02-01T09:53:38.189Z,97472.00
2023-02-01T09:56:04.871Z,97456.41
2023-02-01T09:58:31.497Z,97453.78
2023-02-01T10:00:58.167Z,97447.19
2023-02-01T10:03:24.829Z,97448.13
2023-02-01T10:05:51.450Z,97446.50
2023-02-01T10:08:18.131Z,97441.25
2023-02-01T10:10:44.779Z,97435.94
2023-02-01T10:13:11.490Z,97426.44
2023-02-01T10:15:38.225Z,97429.78
2023-02-01T10:18:04.896Z,97424.63
2023-02-01T10:20:31.603Z,97424.53
2023-02-01T10:23:22.769Z,97416.19
2023-02-01T10:25:45.120Z,97417.53
2023-02-01T10:28:11.871Z,97416.28
2023-02-01T10:30:38.610Z,97402.59
2023-02-01T10:33:05.294Z,97400.53
2023-02-01T10:35:31.916Z,97394.28
2023-02-01T10:37:58.535Z,97388.31
2023-02-01T10:40:25.592Z,97381.28
2023-02-01T10:42:52.527Z,97378.41
2023-02-01T10:45:19.143Z,97374.97
2023-02-01T10:47:45.759Z,97374.94
2023-02-01T10:50:12.409Z,97368.53
2023-02-01T10:52:39.063Z,97365.50
2023-02-01T10:55:05.693Z,97361.50
2023-02-01T10:57:32.329Z,97356.47
2023-02-01T10:59:58.962Z,97359.69
2023-02-01T11:02:25.684Z,97357.06
2023-02-01T11:04:52.423Z,97349.94
2023-02-01T11:07:19.109Z,97352.78
2023-02-01T11:09:45.721Z,97341.44
2023-02-01T11:12:12.411Z,97341.84
2023-02-01T11:14:39.063Z,97332.84
2023-02-01T11:17:05.778Z,97314.81
2023-02-01T11:19:32.453Z,97316.34
2023-02-01T11:21:59.069Z,97292.69
2023-02-01T11:24:25.735Z,97297.75
2023-02-01T11:26:52.372Z,97299.66
2023-02-01T11:29:19.052Z,97302.06
2023-02-01T11:31:45.807Z,97300.63
2023-02-01T11:34:12.442Z,97281.06
2023-02-01T11:36:39.093Z,97262.50
2023-02-01T11:39:05.904Z,97270.94
2023-02-01T11:41:32.539Z,97272.69
2023-02-01T11:43:59.170Z,97253.38
2023-02-01T11:46:25.929Z,97257.81
2023-02-01T11:48:52.625Z,97254.66
2023-02-01T11:51:19.571Z,97253.41
2023-02-01T11:53:46.253Z,97226.47
2023-02-01T11:56:12.892Z,97241.00
2023-02-01T11:58:39.633Z,97238.34
2023-02-01T12:01:06.299Z,97224.75
2023-02-01T12:03:33.003Z,97231.34
2023-02-01T12:05:59.631Z,97225.84
2023-02-01T12:08:26.314Z,97236.66
2023-02-01T12:10:52.968Z,97240.47
2023-02-01T12:13:19.607Z,97223.44
2023-02-01T12:15:46.505Z,97227.72
2023-02-01T12:18:13.202Z,97217.34
2023-02-01T12:20:39.904Z,97224.66
2023-02-01T12:23:06.534Z,97214.63
2023-02-01T12:25:33.246Z,97227.19
2023-02-01T12:27:59.949Z,97231.66
2023-02-01T12:30:26.687Z,97230.75
2023-02-01T12:32:53.402Z,97240.28
2023-02-01T12:35:20.045Z,97223.69
2023-02-01T12:37:46.709Z,97242.53
2023-02-01T12:40:13.368Z,97217.38
2023-02-01T12:42:40.008Z,97230.03
2023-02-01T12:45:06.622Z,97224.53
2023-02-01T12:47:33.244Z,97222.38
2023-02-01T12:49:59.851Z,97219.69
2023-02-01T12:52:26.515Z,97229.16
2023-02-01T12:54:53.133Z,97220.78
2023-02-01T12:57:20.027Z,97233.50
2023-02-01T12:59:46.704Z,97217.81
2023-02-01T13:02:13.360Z,97236.13
2023-02-01T13:04:40.045Z,97229.16
2023-02-01T13:07:06.723Z,97225.41
2023-02-01T13:09:33.332Z,97236.97
2023-02-01T13:12:00.013Z,97232.81
2023-02-01T13:14:26.630Z,97246.22
2023-02-01T13:16:53.392Z,97235.91
2023-02-01T13:19:23.347Z,97230.81
2023-02-01T13:21:50.040Z,97251.44
2023-02-01T13:24:16.731Z,97254.19
2023-02-01T13:26:43.458Z,97247.66
2023-02-01T13:29:10.181Z,97257.50
2023-02-01T13:31:37.081Z,97263.81
2023-02-01T13:34:03.812Z,97263.34
2023-02-01T13:36:30.542Z,97260.09
2023-02-01T13:38:57.165Z,97270.53
2023-02-01T13:41:23.845Z,97286.81
2023-02-01T13:43:50.507Z,97272.75
2023-02-01T13:46:17.267Z,97261.47
2023-02-01T13:48:43.926Z,97268.28
2023-02-01T13:51:10.579Z,97291.63
2023-02-01T13:53:37.234Z,97303.25
2023-02-01T13:56:03.955Z,97305.38
2023-02-01T13:58:30.621Z,97276.88
2023-02-01T14:00:57.314Z,97296.88
2023-02-01T14:03:23.958Z,97291.41
2023-02-01T14:05:50.740Z,97278.28
2023-02-01T14:08:17.426Z,97290.53
2023-02-01T14:10:44.059Z,97299.66
2023-02-01T14:13:10.693Z,97300.50
2023-02-01T14:15:37.435Z,97294.13
2023-02-01T14:18:04.130Z,97322.47
2023-02-01T14:20:30.821Z,97322.47
2023-02-01T14:22:57.498Z,97326.16
2023-02-01T14:25:24.524Z,97326.41
2023-02-01T14:27:51.341Z,97331.44
2023-02-01T14:30:17.984Z,97332.63
2023-02-01T14:32:44.625Z,97337.13
2023-02-01T14:35:11.290Z,97339.84
2023-02-01T14:37:37.949Z,97336.97
2023-02-01T14:40:04.621Z,97347.91
2023-02-01T14:42:31.267Z,97341.78
2023-02-01T14:44:58.751Z,97339.94
2023-02-01T14:47:26.619Z,97357.25
2023-02-01T14:49:53.294Z,97348.13
2023-02-01T14:52:19.944Z,97358.22
2023-02-01T14:54:46.669Z,97349.72
2023-02-01T14:57:13.333Z,97357.66
2023-02-01T14:59:39.963Z,97368.72
2023-02-01T15:02:06.608Z,97360.28
2023-02-01T15:04:33.303Z,97351.88
2023-02-01T15:06:59.992Z,97353.72
2023-02-01T15:09:26.690Z,97361.53
2023-02-01T15:11:53.306Z,97360.91
2023-02-01T15:14:19.918Z,97370.31
2023-02-01T15:16:46.601Z,97356.66
2023-02-01T15:19:13.206Z,97369.19
2023-02-01T15:21:39.879Z,97366.88
2023-02-01T15:24:06.687Z,97367.63
2023-02-01T15:26:33.430Z,97364.34
2023-02-01T15:29:00.069Z,97368.81
2023-02-01T15:31:26.827Z,97365.03
2023-02-01T15:33:53.633Z,97367.44
2023-02-01T15:36:20.407Z,97371.25
2023-02-01T15:38:47.113Z,97381.13
2023-02-01T15:41:13.790Z,97387.97
2023-02-01T15:43:40.462Z,97385.03
2023-02-01T15:46:07.133Z,97387.47
2023-02-01T15:48:33.746Z,97384.03
2023-02-01T15:51:00.370Z,97392.66
2023-02-01T15:53:27.039Z,97405.69
2023-02-01T15:55:53.676Z,97395.03
2023-02-01T15:58:20.368Z,97406.78
2023-02-01T16:00:47.001Z,97408.59
2023-02-01T16:03:13.721Z,97419.47
2023-02-01T16:05:40.495Z,97424.88
2023-02-01T16:08:07.109Z,97427.75
2023-02-01T16:10:33.782Z,97423.69
2023-02-01T16:13:00.391Z,97411.47
2023-02-01T16:15:27.051Z,97426.50
2023-02-01T16:17:53.730Z,97422.63
2023-02-01T16:20:20.401Z,97430.63
2023-02-01T16:22:47.041Z,97429.38
2023-02-01T16:25:13.673Z,97445.31
2023-02-01T16:27:40.308Z,97442.09
2023-02-01T16:30:06.974Z,97442.38
2023-02-01T16:32:33.617Z,97451.53
2023-02-01T16:35:00.254Z,97452.09
2023-02-01T16:37:26.901Z,97438.63
2023-02-01T16:39:53.566Z,97440.97
2023-02-01T16:42:20.195Z,97450.31
2023-02-01T16:44:46.880Z,97463.66
2023-02-01T16:47:13.538Z,97453.88
2023-02-01T16:49:40.304Z,97459.78
2023-02-01T16:52:06.916Z,97462.56
2023-02-01T16:54:33.615Z,97460.28
2023-02-01T16:57:00.218Z,97447.72
2023-02-01T16:59:26.931Z,97452.59
2023-02-01T17:01:53.585Z,97452.25
2023-02-01T17:04:20.231Z,97454.72
2023-02-01T17:06:46.924Z,97447.56
2023-02-01T17:09:13.622Z,97450.34
2023-02-01T17:11:40.286Z,97448.16
2023-02-01T17:14:07.093Z,97449.81
2023-02-01T17:16:33.724Z,97449.97
2023-02-01T17:19:00.447Z,97444.19
2023-02-01T17:21:27.125Z,97449.69
2023-02-01T17:23:53.789Z,97445.34
2023-02-01T17:26:20.497Z,97446.22
2023-02-01T17:28:47.143Z,97451.97
2023-02-01T17:31:13.798Z,97444.56
2023-02-01T17:33:40.494Z,97441.28
2023-02-01T17:36:07.154Z,97442.34
2023-02-01T17:38:33.835Z,97434.53
2023-02-01T17:41:00.514Z,97434.94
2023-02-01T17:43:27.141Z,97431.13
2023-02-01T17:45:54.177Z,97430.25
2023-02-01T17:48:20.823Z,97434.06
2023-02-01T17:50:47.467Z,97425.69
2023-02-01T17:53:14.215Z,97428.91
2023-02-01T17:55:41.214Z,97430.09
2023-02-01T17:58:07.974Z,97425.91
2023-02-01T18:00:34.676Z,97434.19
2023-02-01T18:03:01.640Z,97423.41
2023-02-01T18:05:28.288Z,97417.41
2023-02-01T18:07:55.003Z,97430.03
2023-02-01T18:10:21.666Z,97431.69
2023-02-01T18:12:48.285Z,97441.53
2023-02-01T18:15:15.050Z,97443.22
2023-02-01T18:17:41.689Z,97445.19
2023-02-01T18:20:08.380Z,97445.06
2023-02-01T18:22:35.057Z,97448.47
2023-02-01T18:25:01.712Z,97451.28
2023-02-01T18:27:28.382Z,97443.91
2023-02-01T18:29:55.018Z,97445.22
2023-02-01T18:32:21.686Z,97443.75
2023-02-01T18:34:48.286Z,97447.84
2023-02-01T18:37:14.991Z,97449.38
2023-02-01T18:39:41.702Z,97448.25
2023-02-01T18:42:08.388Z,97451.78
2023-02-01T18:44:35.042Z,97457.34
2023-02-01T18:47:01.707Z,97457.34
2023-02-01T18:49:28.367Z,97450.00
2023-02-01T18:51:55.060Z,97451.69
2023-02-01T18:54:21.761Z,97437.91
2023-02-01T18:56:48.444Z,97451.28
2023-02-01T18:59:15.083Z,97443.31
2023-02-01T19:01:41.727Z,97457.31
2023-02-01T19:04:21.011Z,97467.25
2023-02-01T19:06:52.353Z,97461.41
2023-02-01T19:09:19.049Z,97465.34
2023-02-01T19:11:45.734Z,97457.47
2023-02-01T19:14:12.413Z,97453.28
2023-02-01T19:16:39.043Z,97459.53
2023-02-01T19:19:05.684Z,97476.03
2023-02-01T19:21:32.336Z,97470.75
2023-02-01T19:23:58.988Z,97471.91
2023-02-01T19:26:25.697Z,97469.28
2023-02-01T19:28:52.368Z,97474.41
2023-02-01T19:31:19.120Z,97463.94
2023-02-01T19:33:45.808Z,97479.28
2023-02-01T19:36:12.439Z,97480.41
2023-02-01T19:38:39.627Z,97491.91
2023-02-01T19:41:06.307Z,97491.03
2023-02-01T19:43:33.044Z,97493.03
2023-02-01T19:46:03.242Z,97496.81
2023-02-01T19:48:31.626Z,97502.22
2023-02-01T19:50:58.446Z,97506.31
2023-02-01T19:53:25.175Z,97513.00
2023-02-01T19:55:51.916Z,97510.13
2023-02-01T19:58:18.586Z,97510.69
2023-02-01T20:00:44.463Z,97502.53
2023-02-01T20:03:11.355Z,97503.84
2023-02-01T20:05:38.297Z,97510.19
2023-02-01T20:08:04.919Z,97513.00
2023-02-01T20:10:31.705Z,97508.69
2023-02-01T20:12:58.452Z,97508.44
2023-02-01T20:15:25.521Z,97521.94
2023-02-01T20:17:52.354Z,97512.34
2023-02-01T20:20:19.000Z,97514.16
2023-02-01T20:22:45.609Z,97520.13
2023-02-01T20:25:12.278Z,97520.94
2023-02-01T20:27:39.823Z,97514.97
2023-02-01T20:30:06.482Z,97511.59
2023-02-01T20:32:33.275Z,97505.56
2023-02-01T20:34:59.891Z,97506.97
2023-02-01T20:37:26.492Z,97516.88
2023-02-01T20:39:53.158Z,97507.78
2023-02-01T20:42:19.819Z,97514.41
2023-02-01T20:44:46.452Z,97511.78
2023-02-01T20:47:13.090Z,97509.75
2023-02-01T20:49:39.769Z,97519.38
2023-02-01T20:52:07.513Z,97512.78
2023-02-01T20:54:34.153Z,97507.19
2023-02-01T20:57:00.768Z,97508.16
2023-02-01T20:59:27.405Z,97515.09
2023-02-01T21:01:54.059Z,97517.69
2023-02-01T21:04:20.756Z,97504.38
2023-02-01T21:06:47.431Z,97514.56
2023-02-01T21:09:14.057Z,97511.06
2023-02-01T21:11:40.683Z,97514.88
2023-02-01T21:14:07.346Z,97518.50
2023-02-01T21:16:34.066Z,97509.88
2023-02-01T21:19:00.729Z,97512.91
2023-02-01T21:21:27.415Z,97493.25
2023-02-01T21:23:54.028Z,97494.75
2023-02-01T21:26:20.645Z,97487.53
2023-02-01T21:28:47.290Z,97480.47
2023-02-01T21:31:14.056Z,97484.00
2023-02-01T21:33:40.829Z,97495.50
2023-02-01T21:36:07.430Z,97494.53
2023-02-01T21:38:34.104Z,97496.69
2023-02-01T21:41:00.726Z,97487.75
2023-02-01T21:43:27.357Z,97498.66
2023-02-01T21:45:54.027Z,97503.16
2023-02-01T21:48:20.755Z,97499.50
2023-02-01T21:50:47.366Z,97498.31
2023-02-01T21:53:14.005Z,97499.13
2023-02-01T21:55:40.726Z,97486.34
2023-02-01T21:58:07.369Z,97487.69
2023-02-01T22:00:33.997Z,97493.19
2023-02-01T22:03:00.641Z,97506.75
2023-02-01T22:05:27.309Z,97495.63
2023-02-01T22:07:53.998Z,97498.31
2023-02-01T22:10:20.685Z,97509.31
2023-02-01T22:12:47.300Z,97501.94
2023-02-01T22:15:13.969Z,97508.28
2023-02-01T22:17:40.616Z,97510.72
2023-02-01T22:20:07.258Z,97513.84
2023-02-01T22:22:33.847Z,97513.38
2023-02-01T22:25:00.497Z,97519.28
2023-02-01T22:27:30.498Z,97512.66
2023-02-01T22:30:13.794Z,97512.66
2023-02-01T22:32:40.444Z,97508.84
2023-02-01T22:35:07.215Z,97498.16
2023-02-01T22:37:33.874Z,97496.13
2023-02-01T22:40:00.523Z,97508.81
2023-02-01T22:42:27.204Z,97508.41
2023-02-01T22:44:53.856Z,97492.84
2023-02-01T22:47:20.483Z,97479.56
2023-02-01T22:49:47.135Z,97482.03
2023-02-01T22:52:13.810Z,97484.06
2023-02-01T22:54:40.540Z,97476.91
2023-02-01T22:57:08.005Z,97475.03
2023-02-01T22:59:34.824Z,97477.78
2023-02-01T23:02:01.431Z,97476.53
2023-02-01T23:04:28.111Z,97477.44
2023-02-01T23:06:54.850Z,97473.16
2023-02-01T23:09:21.483Z,97466.25
2023-02-01T23:11:48.128Z,97462.84
2023-02-01T23:14:14.768Z,97452.94
2023-02-01T23:16:41.436Z,97451.25
2023-02-01T23:19:08.072Z,97471.00
2023-02-01T23:21:34.744Z,97456.75
2023-02-01T23:24:01.389Z,97442.88
2023-02-01T23:26:28.056Z,97450.72
2023-02-01T23:28:54.685Z,97447.66
2023-02-01T23:31:21.431Z,97448.47
2023-02-01T23:33:48.160Z,97452.03
2023-02-01T23:36:14.790Z,97429.13
2023-02-01T23:38:41.490Z,97420.84
2023-02-01T23:41:08.292Z,97410.13
2023-02-01T23:43:34.947Z,97392.34
2023-02-01T23:46:01.613Z,97397.25
2023-02-01T23:48:28.292Z,97413.59
2023-02-01T23:50:54.991Z,97416.19
2023-02-01T23:53:21.654Z,97425.41
2023-02-01T23:55:48.326Z,97418.53
2023-02-01T23:58:14.940Z,97416.72
